This is the latest recevied weather packets stored in our database for station/object NO3U. If no packets are shown the sender has not sent any weather packets the latest 1 day(s).
| Time | Temp. | Humidity | Pressure | Rain* | Wind** | Luminosity | Snow |
|---|---|---|---|---|---|---|---|
| 1778016862 | 22.78° C | 55% | 1007.8 hPa | 0 mm | 1.79 m/s, 96° | 133 W/m² | - |
| 1778016558 | 22.78° C | 55% | 1007.8 hPa | 0 mm | 0.89 m/s, 13° | 146 W/m² | - |
| 1778016255 | 22.78° C | 56% | 1007.8 hPa | 0 mm | 0.45 m/s, 252° | 162 W/m² | - |
| 1778015951 | 22.78° C | 55% | 1007.8 hPa | 0 mm | 1.79 m/s, 93° | 153 W/m² | - |
| 1778015649 | 22.78° C | 55% | 1007.7 hPa | 0 mm | 0.89 m/s, 91° | 152 W/m² | - |
| 1778015345 | 22.22° C | 56% | 1007.7 hPa | 0 mm | 0.45 m/s, 348° | 131 W/m² | - |
| 1778015042 | 22.78° C | 55% | 1007.8 hPa | 0 mm | 0.89 m/s, 314° | 96 W/m² | - |
| 1778014739 | 22.78° C | 55% | 1007.7 hPa | 0 mm | 1.79 m/s, 131° | 170 W/m² | - |
| 1778014437 | 22.78° C | 55% | 1007.7 hPa | 0 mm | 0.45 m/s, 341° | 194 W/m² | - |
| 1778014134 | 22.22° C | 55% | 1007.7 hPa | 0 mm | 0 m/s | 202 W/m² | - |
| 1778013832 | 22.22° C | 57% | 1007.8 hPa | 0 mm | 1.79 m/s, 136° | 196 W/m² | - |
| 1778013529 | 22.22° C | 55% | 1007.9 hPa | 0 mm | 0.45 m/s, 28° | 141 W/m² | - |
| 1778013225 | 22.22° C | 56% | 1007.8 hPa | 0 mm | 0 m/s | 137 W/m² | - |
| 1778012922 | 22.22° C | 56% | 1008 hPa | 0 mm | 0.45 m/s, 43° | 162 W/m² | - |
| 1778012618 | 22.22° C | 56% | 1007.9 hPa | 0 mm | 0 m/s | 156 W/m² | - |
| 1778012314 | 22.22° C | 56% | 1008 hPa | 0 mm | 0.89 m/s, 332° | 138 W/m² | - |
| 1778012012 | 22.22° C | 56% | 1007.9 hPa | 0 mm | 1.34 m/s, 322° | 135 W/m² | - |
| 1778011710 | 21.67° C | 58% | 1007.9 hPa | 0 mm | 0 m/s | 188 W/m² | - |
| 1778011407 | 21.67° C | 56% | 1008.3 hPa | 0 mm | 0 m/s | 142 W/m² | - |
| 1778011102 | 21.67° C | 57% | 1008.5 hPa | 0 mm | 0.45 m/s, 2° | 98 W/m² | - |
| 1778010800 | 21.67° C | 58% | 1008.3 hPa | 0 mm | 0.45 m/s, 355° | 107 W/m² | - |
| 1778010497 | 21.67° C | 58% | 1008.6 hPa | 0 mm | 0.89 m/s, 16° | 124 W/m² | - |
| 1778010194 | 21.67° C | 56% | 1008.6 hPa | 0 mm | 0.89 m/s, 344° | 80 W/m² | - |
| 1778009889 | 21.67° C | 55% | 1008.6 hPa | 0 mm | 0.45 m/s, 66° | 68 W/m² | - |
| 1778009587 | 21.67° C | 55% | 1008.9 hPa | 0 mm | 1.34 m/s, 64° | 95 W/m² | - |
* Rain latest hour (hover to see other rain measurements)
** Current wind speed in m/s (hover to see current wind gust speed)